sensor_id;sensor_type;location;lat;lon;timestamp;P1;durP1;ratioP1;P2;durP2;ratioP2
64094;SDS011;50353;51.420;5.682;2023-05-10T00:01:37;7.35;;;4.93;;
64094;SDS011;50353;51.420;5.682;2023-05-10T00:04:02;8.10;;;4.68;;
64094;SDS011;50353;51.420;5.682;2023-05-10T00:06:28;9.45;;;4.70;;
64094;SDS011;50353;51.420;5.682;2023-05-10T00:08:53;7.60;;;4.15;;
64094;SDS011;50353;51.420;5.682;2023-05-10T00:11:18;8.68;;;4.65;;
64094;SDS011;50353;51.420;5.682;2023-05-10T00:13:43;7.15;;;4.57;;
64094;SDS011;50353;51.420;5.682;2023-05-10T00:16:09;10.18;;;5.22;;
64094;SDS011;50353;51.420;5.682;2023-05-10T00:18:34;8.00;;;5.60;;
64094;SDS011;50353;51.420;5.682;2023-05-10T00:21:00;9.00;;;5.72;;
64094;SDS011;50353;51.420;5.682;2023-05-10T00:23:25;8.60;;;6.50;;
64094;SDS011;50353;51.420;5.682;2023-05-10T00:25:50;7.45;;;5.45;;
64094;SDS011;50353;51.420;5.682;2023-05-10T00:28:15;8.55;;;6.15;;
64094;SDS011;50353;51.420;5.682;2023-05-10T00:30:41;8.48;;;5.80;;
64094;SDS011;50353;51.420;5.682;2023-05-10T00:33:06;9.88;;;6.65;;
64094;SDS011;50353;51.420;5.682;2023-05-10T00:35:31;10.88;;;6.50;;
64094;SDS011;50353;51.420;5.682;2023-05-10T00:37:57;8.80;;;6.75;;
64094;SDS011;50353;51.420;5.682;2023-05-10T00:40:22;7.70;;;6.50;;
64094;SDS011;50353;51.420;5.682;2023-05-10T00:42:47;10.07;;;6.32;;
64094;SDS011;50353;51.420;5.682;2023-05-10T00:45:13;8.50;;;6.40;;
64094;SDS011;50353;51.420;5.682;2023-05-10T00:47:38;10.55;;;7.05;;
64094;SDS011;50353;51.420;5.682;2023-05-10T00:50:04;12.55;;;7.43;;
64094;SDS011;50353;51.420;5.682;2023-05-10T00:52:30;10.85;;;8.30;;
64094;SDS011;50353;51.420;5.682;2023-05-10T00:54:56;11.68;;;8.40;;
64094;SDS011;50353;51.420;5.682;2023-05-10T00:57:22;11.63;;;9.10;;
64094;SDS011;50353;51.420;5.682;2023-05-10T00:59:47;14.00;;;10.13;;
64094;SDS011;50353;51.420;5.682;2023-05-10T01:02:13;15.43;;;10.25;;
64094;SDS011;50353;51.420;5.682;2023-05-10T01:04:38;17.33;;;10.88;;
64094;SDS011;50353;51.420;5.682;2023-05-10T01:07:04;12.00;;;8.98;;
64094;SDS011;50353;51.420;5.682;2023-05-10T01:09:29;13.43;;;10.18;;
64094;SDS011;50353;51.420;5.682;2023-05-10T01:11:55;16.98;;;12.90;;
64094;SDS011;50353;51.420;5.682;2023-05-10T01:14:21;19.50;;;12.95;;
64094;SDS011;50353;51.420;5.682;2023-05-10T01:16:47;17.20;;;12.30;;
64094;SDS011;50353;51.420;5.682;2023-05-10T01:30:12;20.52;;;15.25;;
64094;SDS011;50353;51.420;5.682;2023-05-10T01:32:55;21.95;;;14.77;;
64094;SDS011;50353;51.420;5.682;2023-05-10T01:35:28;22.98;;;15.25;;
64094;SDS011;50353;51.420;5.682;2023-05-10T01:38:03;21.50;;;14.88;;
64094;SDS011;50353;51.420;5.682;2023-05-10T01:40:42;23.05;;;15.32;;
64094;SDS011;50353;51.420;5.682;2023-05-10T01:43:19;23.08;;;14.95;;
64094;SDS011;50353;51.420;5.682;2023-05-10T01:45:58;21.38;;;14.20;;
64094;SDS011;50353;51.420;5.682;2023-05-10T01:48:29;20.80;;;14.95;;
64094;SDS011;50353;51.420;5.682;2023-05-10T01:50:56;23.77;;;14.82;;
64094;SDS011;50353;51.420;5.682;2023-05-10T01:53:23;18.17;;;12.85;;
64094;SDS011;50353;51.420;5.682;2023-05-10T01:55:49;23.30;;;15.30;;
64094;SDS011;50353;51.420;5.682;2023-05-10T01:58:20;21.05;;;15.57;;
64094;SDS011;50353;51.420;5.682;2023-05-10T02:00:50;23.10;;;14.60;;
64094;SDS011;50353;51.420;5.682;2023-05-10T02:03:17;22.70;;;15.70;;
64094;SDS011;50353;51.420;5.682;2023-05-10T02:05:46;23.58;;;15.15;;
64094;SDS011;50353;51.420;5.682;2023-05-10T02:08:14;23.05;;;15.65;;
64094;SDS011;50353;51.420;5.682;2023-05-10T02:10:41;21.25;;;14.90;;
64094;SDS011;50353;51.420;5.682;2023-05-10T02:13:07;23.05;;;16.60;;
64094;SDS011;50353;51.420;5.682;2023-05-10T02:15:36;22.98;;;15.95;;
64094;SDS011;50353;51.420;5.682;2023-05-10T02:20:29;21.23;;;15.73;;
64094;SDS011;50353;51.420;5.682;2023-05-10T02:22:57;20.02;;;14.23;;
64094;SDS011;50353;51.420;5.682;2023-05-10T02:25:23;22.10;;;14.90;;
64094;SDS011;50353;51.420;5.682;2023-05-10T02:27:50;23.17;;;16.45;;
64094;SDS011;50353;51.420;5.682;2023-05-10T02:30:18;21.42;;;14.20;;
64094;SDS011;50353;51.420;5.682;2023-05-10T02:32:44;21.73;;;15.77;;
64094;SDS011;50353;51.420;5.682;2023-05-10T02:35:11;21.40;;;15.45;;
64094;SDS011;50353;51.420;5.682;2023-05-10T02:37:37;16.33;;;11.63;;
64094;SDS011;50353;51.420;5.682;2023-05-10T02:42:31;22.33;;;15.90;;
64094;SDS011;50353;51.420;5.682;2023-05-10T02:45:00;21.52;;;14.00;;
64094;SDS011;50353;51.420;5.682;2023-05-10T02:47:28;16.35;;;12.18;;
64094;SDS011;50353;51.420;5.682;2023-05-10T02:49:54;19.17;;;12.70;;
64094;SDS011;50353;51.420;5.682;2023-05-10T02:52:21;26.83;;;19.25;;
64094;SDS011;50353;51.420;5.682;2023-05-10T02:54:50;22.15;;;14.35;;
64094;SDS011;50353;51.420;5.682;2023-05-10T02:57:26;33.30;;;16.90;;
64094;SDS011;50353;51.420;5.682;2023-05-10T02:59:55;26.08;;;17.67;;
64094;SDS011;50353;51.420;5.682;2023-05-10T03:02:20;25.60;;;16.38;;
64094;SDS011;50353;51.420;5.682;2023-05-10T03:04:46;35.83;;;23.52;;
64094;SDS011;50353;51.420;5.682;2023-05-10T03:07:11;21.05;;;15.43;;
64094;SDS011;50353;51.420;5.682;2023-05-10T03:09:37;35.80;;;22.17;;
64094;SDS011;50353;51.420;5.682;2023-05-10T03:18:06;30.08;;;20.00;;
64094;SDS011;50353;51.420;5.682;2023-05-10T03:20:46;36.50;;;21.75;;
64094;SDS011;50353;51.420;5.682;2023-05-10T03:23:16;28.45;;;16.92;;
64094;SDS011;50353;51.420;5.682;2023-05-10T03:25:44;35.55;;;21.45;;
64094;SDS011;50353;51.420;5.682;2023-05-10T03:28:12;29.95;;;20.83;;
64094;SDS011;50353;51.420;5.682;2023-05-10T03:30:40;38.40;;;24.80;;
64094;SDS011;50353;51.420;5.682;2023-05-10T03:33:06;33.53;;;22.13;;
64094;SDS011;50353;51.420;5.682;2023-05-10T03:35:32;30.52;;;19.85;;
64094;SDS011;50353;51.420;5.682;2023-05-10T03:37:57;31.10;;;18.85;;
64094;SDS011;50353;51.420;5.682;2023-05-10T03:40:23;28.23;;;17.58;;
64094;SDS011;50353;51.420;5.682;2023-05-10T03:42:49;34.80;;;22.03;;
64094;SDS011;50353;51.420;5.682;2023-05-10T03:45:14;25.23;;;16.23;;
64094;SDS011;50353;51.420;5.682;2023-05-10T03:47:40;35.20;;;22.08;;
64094;SDS011;50353;51.420;5.682;2023-05-10T03:50:05;36.22;;;23.23;;
64094;SDS011;50353;51.420;5.682;2023-05-10T03:52:31;34.83;;;21.85;;
64094;SDS011;50353;51.420;5.682;2023-05-10T03:54:58;33.67;;;18.35;;
64094;SDS011;50353;51.420;5.682;2023-05-10T03:57:23;30.38;;;19.95;;
64094;SDS011;50353;51.420;5.682;2023-05-10T03:59:48;33.58;;;20.95;;
64094;SDS011;50353;51.420;5.682;2023-05-10T04:02:14;37.67;;;22.10;;
64094;SDS011;50353;51.420;5.682;2023-05-10T04:04:39;18.90;;;13.57;;
64094;SDS011;50353;51.420;5.682;2023-05-10T04:07:04;33.72;;;21.05;;
64094;SDS011;50353;51.420;5.682;2023-05-10T04:09:30;29.83;;;18.60;;
64094;SDS011;50353;51.420;5.682;2023-05-10T04:11:55;28.80;;;18.58;;
64094;SDS011;50353;51.420;5.682;2023-05-10T04:14:20;33.88;;;21.20;;
64094;SDS011;50353;51.420;5.682;2023-05-10T04:16:46;24.25;;;14.95;;
64094;SDS011;50353;51.420;5.682;2023-05-10T04:19:11;31.15;;;20.23;;
64094;SDS011;50353;51.420;5.682;2023-05-10T04:21:36;24.77;;;15.43;;
64094;SDS011;50353;51.420;5.682;2023-05-10T04:24:02;33.25;;;20.52;;
64094;SDS011;50353;51.420;5.682;2023-05-10T04:26:27;35.63;;;22.45;;
64094;SDS011;50353;51.420;5.682;2023-05-10T04:28:52;22.10;;;14.70;;
64094;SDS011;50353;51.420;5.682;2023-05-10T04:31:17;28.38;;;17.23;;
64094;SDS011;50353;51.420;5.682;2023-05-10T04:33:43;31.70;;;19.20;;
64094;SDS011;50353;51.420;5.682;2023-05-10T04:36:08;37.90;;;21.85;;
64094;SDS011;50353;51.420;5.682;2023-05-10T04:38:34;25.08;;;15.68;;
64094;SDS011;50353;51.420;5.682;2023-05-10T04:41:06;36.38;;;20.83;;
64094;SDS011;50353;51.420;5.682;2023-05-10T04:43:33;34.97;;;19.92;;
64094;SDS011;50353;51.420;5.682;2023-05-10T04:45:58;31.60;;;17.35;;
64094;SDS011;50353;51.420;5.682;2023-05-10T04:48:24;38.92;;;18.92;;
64094;SDS011;50353;51.420;5.682;2023-05-10T04:50:49;47.35;;;24.52;;
64094;SDS011;50353;51.420;5.682;2023-05-10T04:53:14;36.95;;;19.23;;
64094;SDS011;50353;51.420;5.682;2023-05-10T04:55:40;34.63;;;19.80;;
64094;SDS011;50353;51.420;5.682;2023-05-10T04:58:05;51.35;;;26.40;;
64094;SDS011;50353;51.420;5.682;2023-05-10T05:00:31;45.60;;;25.05;;
64094;SDS011;50353;51.420;5.682;2023-05-10T05:02:56;42.92;;;24.77;;
64094;SDS011;50353;51.420;5.682;2023-05-10T05:05:22;28.70;;;15.45;;
64094;SDS011;50353;51.420;5.682;2023-05-10T05:07:47;39.20;;;22.95;;
64094;SDS011;50353;51.420;5.682;2023-05-10T05:10:12;43.38;;;23.30;;
64094;SDS011;50353;51.420;5.682;2023-05-10T05:12:38;41.03;;;21.88;;
64094;SDS011;50353;51.420;5.682;2023-05-10T05:15:03;38.65;;;21.35;;
64094;SDS011;50353;51.420;5.682;2023-05-10T05:17:31;39.03;;;20.88;;
64094;SDS011;50353;51.420;5.682;2023-05-10T05:19:57;36.67;;;20.33;;
64094;SDS011;50353;51.420;5.682;2023-05-10T05:22:22;40.30;;;21.95;;
64094;SDS011;50353;51.420;5.682;2023-05-10T05:24:53;39.90;;;23.08;;
64094;SDS011;50353;51.420;5.682;2023-05-10T05:27:19;42.50;;;22.90;;
64094;SDS011;50353;51.420;5.682;2023-05-10T05:29:47;44.08;;;24.98;;
64094;SDS011;50353;51.420;5.682;2023-05-10T05:32:12;50.60;;;27.98;;
64094;SDS011;50353;51.420;5.682;2023-05-10T05:34:37;57.00;;;30.65;;
64094;SDS011;50353;51.420;5.682;2023-05-10T05:37:03;50.22;;;27.38;;
64094;SDS011;50353;51.420;5.682;2023-05-10T05:39:28;56.65;;;30.10;;
64094;SDS011;50353;51.420;5.682;2023-05-10T05:41:54;46.50;;;27.23;;
64094;SDS011;50353;51.420;5.682;2023-05-10T05:44:19;92.60;;;48.72;;
64094;SDS011;50353;51.420;5.682;2023-05-10T05:46:44;48.00;;;26.40;;
64094;SDS011;50353;51.420;5.682;2023-05-10T05:49:10;43.92;;;26.00;;
64094;SDS011;50353;51.420;5.682;2023-05-10T05:51:35;38.13;;;21.80;;
64094;SDS011;50353;51.420;5.682;2023-05-10T05:54:00;50.95;;;29.65;;
64094;SDS011;50353;51.420;5.682;2023-05-10T05:56:26;38.25;;;22.77;;
64094;SDS011;50353;51.420;5.682;2023-05-10T05:58:51;155.35;;;89.40;;
64094;SDS011;50353;51.420;5.682;2023-05-10T06:01:17;51.13;;;30.75;;
64094;SDS011;50353;51.420;5.682;2023-05-10T06:03:42;39.22;;;22.38;;
64094;SDS011;50353;51.420;5.682;2023-05-10T06:06:07;48.13;;;29.33;;
64094;SDS011;50353;51.420;5.682;2023-05-10T06:08:33;40.35;;;24.38;;
64094;SDS011;50353;51.420;5.682;2023-05-10T06:10:59;32.97;;;21.58;;
64094;SDS011;50353;51.420;5.682;2023-05-10T06:13:24;41.25;;;23.52;;
64094;SDS011;50353;51.420;5.682;2023-05-10T06:15:50;37.10;;;21.38;;
64094;SDS011;50353;51.420;5.682;2023-05-10T06:18:15;31.15;;;19.77;;
64094;SDS011;50353;51.420;5.682;2023-05-10T06:20:41;43.60;;;20.88;;
64094;SDS011;50353;51.420;5.682;2023-05-10T06:23:07;31.25;;;18.15;;
64094;SDS011;50353;51.420;5.682;2023-05-10T06:25:32;27.67;;;16.63;;
64094;SDS011;50353;51.420;5.682;2023-05-10T06:27:57;24.95;;;16.08;;
64094;SDS011;50353;51.420;5.682;2023-05-10T06:30:23;25.67;;;14.82;;
64094;SDS011;50353;51.420;5.682;2023-05-10T06:32:52;23.35;;;13.93;;
64094;SDS011;50353;51.420;5.682;2023-05-10T06:35:18;25.83;;;15.63;;
64094;SDS011;50353;51.420;5.682;2023-05-10T06:37:43;21.33;;;14.27;;
64094;SDS011;50353;51.420;5.682;2023-05-10T06:40:09;21.05;;;14.55;;
64094;SDS011;50353;51.420;5.682;2023-05-10T06:42:34;23.52;;;15.70;;
64094;SDS011;50353;51.420;5.682;2023-05-10T06:44:59;20.58;;;14.15;;
64094;SDS011;50353;51.420;5.682;2023-05-10T06:47:25;26.17;;;15.50;;
64094;SDS011;50353;51.420;5.682;2023-05-10T06:49:50;24.27;;;15.75;;
64094;SDS011;50353;51.420;5.682;2023-05-10T06:52:16;28.98;;;15.73;;
64094;SDS011;50353;51.420;5.682;2023-05-10T06:54:41;26.70;;;15.65;;
64094;SDS011;50353;51.420;5.682;2023-05-10T06:57:06;19.02;;;12.60;;
64094;SDS011;50353;51.420;5.682;2023-05-10T06:59:32;18.08;;;12.27;;
64094;SDS011;50353;51.420;5.682;2023-05-10T07:01:57;27.05;;;16.50;;
64094;SDS011;50353;51.420;5.682;2023-05-10T07:04:22;25.75;;;16.90;;
64094;SDS011;50353;51.420;5.682;2023-05-10T07:06:48;27.67;;;17.90;;
64094;SDS011;50353;51.420;5.682;2023-05-10T07:09:14;30.17;;;18.50;;
64094;SDS011;50353;51.420;5.682;2023-05-10T07:11:39;28.05;;;17.25;;
64094;SDS011;50353;51.420;5.682;2023-05-10T07:14:05;26.75;;;15.40;;
64094;SDS011;50353;51.420;5.682;2023-05-10T07:16:30;25.70;;;15.02;;
64094;SDS011;50353;51.420;5.682;2023-05-10T07:18:56;26.27;;;16.13;;
64094;SDS011;50353;51.420;5.682;2023-05-10T07:21:21;24.67;;;16.60;;
64094;SDS011;50353;51.420;5.682;2023-05-10T07:23:48;28.85;;;17.23;;
64094;SDS011;50353;51.420;5.682;2023-05-10T07:26:14;25.23;;;16.13;;
64094;SDS011;50353;51.420;5.682;2023-05-10T07:28:40;27.60;;;17.00;;
64094;SDS011;50353;51.420;5.682;2023-05-10T07:31:05;24.23;;;15.80;;
64094;SDS011;50353;51.420;5.682;2023-05-10T07:33:31;27.95;;;15.60;;
64094;SDS011;50353;51.420;5.682;2023-05-10T07:35:56;25.38;;;16.73;;
64094;SDS011;50353;51.420;5.682;2023-05-10T07:38:21;18.27;;;12.40;;
64094;SDS011;50353;51.420;5.682;2023-05-10T07:40:47;21.08;;;12.52;;
64094;SDS011;50353;51.420;5.682;2023-05-10T07:43:12;19.95;;;13.00;;
64094;SDS011;50353;51.420;5.682;2023-05-10T07:45:37;25.20;;;17.05;;
64094;SDS011;50353;51.420;5.682;2023-05-10T07:48:03;20.70;;;13.68;;
64094;SDS011;50353;51.420;5.682;2023-05-10T07:50:28;20.60;;;13.25;;
64094;SDS011;50353;51.420;5.682;2023-05-10T07:52:53;18.33;;;12.52;;
64094;SDS011;50353;51.420;5.682;2023-05-10T07:55:19;26.70;;;15.05;;
64094;SDS011;50353;51.420;5.682;2023-05-10T07:57:46;18.58;;;14.07;;
64094;SDS011;50353;51.420;5.682;2023-05-10T08:00:17;23.40;;;15.93;;
64094;SDS011;50353;51.420;5.682;2023-05-10T08:02:43;19.85;;;12.35;;
64094;SDS011;50353;51.420;5.682;2023-05-10T08:05:08;18.83;;;12.32;;
64094;SDS011;50353;51.420;5.682;2023-05-10T08:07:34;20.70;;;13.38;;
64094;SDS011;50353;51.420;5.682;2023-05-10T08:10:00;15.00;;;10.30;;
64094;SDS011;50353;51.420;5.682;2023-05-10T08:12:25;16.50;;;10.10;;
64094;SDS011;50353;51.420;5.682;2023-05-10T08:14:51;20.52;;;9.85;;
64094;SDS011;50353;51.420;5.682;2023-05-10T08:17:16;16.05;;;8.68;;
64094;SDS011;50353;51.420;5.682;2023-05-10T08:19:41;15.57;;;9.25;;
64094;SDS011;50353;51.420;5.682;2023-05-10T08:22:06;19.05;;;11.10;;
64094;SDS011;50353;51.420;5.682;2023-05-10T08:24:32;18.75;;;9.65;;
64094;SDS011;50353;51.420;5.682;2023-05-10T08:29:24;13.80;;;7.67;;
64094;SDS011;50353;51.420;5.682;2023-05-10T08:31:50;15.20;;;9.25;;
64094;SDS011;50353;51.420;5.682;2023-05-10T08:34:15;12.98;;;7.72;;
64094;SDS011;50353;51.420;5.682;2023-05-10T08:36:40;10.00;;;6.07;;
64094;SDS011;50353;51.420;5.682;2023-05-10T08:39:05;9.45;;;5.72;;
64094;SDS011;50353;51.420;5.682;2023-05-10T08:41:31;11.85;;;7.20;;
64094;SDS011;50353;51.420;5.682;2023-05-10T08:46:24;14.47;;;7.37;;
64094;SDS011;50353;51.420;5.682;2023-05-10T08:48:52;15.98;;;8.10;;
64094;SDS011;50353;51.420;5.682;2023-05-10T08:51:19;14.80;;;7.78;;
64094;SDS011;50353;51.420;5.682;2023-05-10T08:53:48;18.48;;;7.53;;
64094;SDS011;50353;51.420;5.682;2023-05-10T08:56:15;9.85;;;6.65;;
64094;SDS011;50353;51.420;5.682;2023-05-10T08:58:40;11.63;;;6.00;;
64094;SDS011;50353;51.420;5.682;2023-05-10T09:01:06;9.20;;;5.57;;
64094;SDS011;50353;51.420;5.682;2023-05-10T09:03:32;14.30;;;7.07;;
64094;SDS011;50353;51.420;5.682;2023-05-10T09:05:57;14.23;;;6.53;;
64094;SDS011;50353;51.420;5.682;2023-05-10T09:08:23;10.68;;;5.88;;
64094;SDS011;50353;51.420;5.682;2023-05-10T09:10:52;9.88;;;5.07;;
64094;SDS011;50353;51.420;5.682;2023-05-10T09:13:19;12.23;;;6.60;;
64094;SDS011;50353;51.420;5.682;2023-05-10T09:15:45;15.15;;;7.07;;
64094;SDS011;50353;51.420;5.682;2023-05-10T09:18:12;9.90;;;5.85;;
64094;SDS011;50353;51.420;5.682;2023-05-10T09:20:37;14.27;;;6.45;;
64094;SDS011;50353;51.420;5.682;2023-05-10T09:23:02;10.18;;;6.55;;
64094;SDS011;50353;51.420;5.682;2023-05-10T09:25:28;11.70;;;5.55;;
64094;SDS011;50353;51.420;5.682;2023-05-10T09:27:53;10.77;;;6.55;;
64094;SDS011;50353;51.420;5.682;2023-05-10T09:30:23;9.80;;;5.83;;
64094;SDS011;50353;51.420;5.682;2023-05-10T09:32:51;9.20;;;5.72;;
64094;SDS011;50353;51.420;5.682;2023-05-10T09:35:18;10.35;;;6.03;;
64094;SDS011;50353;51.420;5.682;2023-05-10T09:37:45;9.43;;;5.68;;
64094;SDS011;50353;51.420;5.682;2023-05-10T09:40:18;7.85;;;4.47;;
64094;SDS011;50353;51.420;5.682;2023-05-10T09:45:24;13.13;;;6.00;;
64094;SDS011;50353;51.420;5.682;2023-05-10T09:47:52;12.15;;;5.68;;
64094;SDS011;50353;51.420;5.682;2023-05-10T09:50:18;11.43;;;5.75;;
64094;SDS011;50353;51.420;5.682;2023-05-10T09:55:18;10.30;;;6.07;;
64094;SDS011;50353;51.420;5.682;2023-05-10T09:57:46;10.35;;;6.10;;
64094;SDS011;50353;51.420;5.682;2023-05-10T10:00:16;10.98;;;6.75;;
64094;SDS011;50353;51.420;5.682;2023-05-10T10:02:44;11.52;;;6.60;;
64094;SDS011;50353;51.420;5.682;2023-05-10T10:05:11;12.07;;;7.03;;
64094;SDS011;50353;51.420;5.682;2023-05-10T10:07:36;11.82;;;7.95;;
64094;SDS011;50353;51.420;5.682;2023-05-10T10:10:02;13.77;;;8.07;;
64094;SDS011;50353;51.420;5.682;2023-05-10T10:14:54;14.73;;;8.10;;
64094;SDS011;50353;51.420;5.682;2023-05-10T10:17:21;11.60;;;7.40;;
64094;SDS011;50353;51.420;5.682;2023-05-10T10:19:46;12.00;;;6.53;;
64094;SDS011;50353;51.420;5.682;2023-05-10T10:22:13;11.38;;;7.30;;
64094;SDS011;50353;51.420;5.682;2023-05-10T10:24:38;12.68;;;7.07;;
64094;SDS011;50353;51.420;5.682;2023-05-10T10:27:33;13.25;;;7.00;;
64094;SDS011;50353;51.420;5.682;2023-05-10T10:30:23;12.13;;;6.70;;
64094;SDS011;50353;51.420;5.682;2023-05-10T10:35:32;11.25;;;6.60;;
64094;SDS011;50353;51.420;5.682;2023-05-10T10:37:59;11.85;;;7.25;;
64094;SDS011;50353;51.420;5.682;2023-05-10T10:40:29;12.55;;;8.13;;
64094;SDS011;50353;51.420;5.682;2023-05-10T10:42:56;14.10;;;6.97;;
64094;SDS011;50353;51.420;5.682;2023-05-10T10:45:22;10.52;;;6.43;;
64094;SDS011;50353;51.420;5.682;2023-05-10T10:47:53;10.32;;;6.13;;
64094;SDS011;50353;51.420;5.682;2023-05-10T10:50:44;8.38;;;5.80;;
64094;SDS011;50353;51.420;5.682;2023-05-10T10:53:11;9.18;;;5.80;;
64094;SDS011;50353;51.420;5.682;2023-05-10T10:55:44;11.48;;;6.00;;
64094;SDS011;50353;51.420;5.682;2023-05-10T10:58:12;9.93;;;6.28;;
64094;SDS011;50353;51.420;5.682;2023-05-10T11:01:08;9.40;;;5.78;;
64094;SDS011;50353;51.420;5.682;2023-05-10T11:03:37;27.55;;;18.02;;
64094;SDS011;50353;51.420;5.682;2023-05-10T11:06:02;21.98;;;15.55;;
64094;SDS011;50353;51.420;5.682;2023-05-10T11:08:29;16.38;;;9.07;;
64094;SDS011;50353;51.420;5.682;2023-05-10T11:13:34;12.55;;;8.07;;
64094;SDS011;50353;51.420;5.682;2023-05-10T11:16:19;14.98;;;10.98;;
64094;SDS011;50353;51.420;5.682;2023-05-10T11:18:52;11.18;;;7.38;;
64094;SDS011;50353;51.420;5.682;2023-05-10T11:21:23;11.75;;;8.35;;
64094;SDS011;50353;51.420;5.682;2023-05-10T11:23:50;15.65;;;11.15;;
64094;SDS011;50353;51.420;5.682;2023-05-10T11:26:21;18.23;;;10.50;;
64094;SDS011;50353;51.420;5.682;2023-05-10T11:28:50;16.02;;;9.32;;
64094;SDS011;50353;51.420;5.682;2023-05-10T11:31:18;16.02;;;10.25;;
64094;SDS011;50353;51.420;5.682;2023-05-10T11:33:45;13.50;;;10.55;;
64094;SDS011;50353;51.420;5.682;2023-05-10T11:36:13;26.73;;;17.45;;
64094;SDS011;50353;51.420;5.682;2023-05-10T11:38:40;14.55;;;9.60;;
64094;SDS011;50353;51.420;5.682;2023-05-10T11:41:07;13.18;;;10.20;;
64094;SDS011;50353;51.420;5.682;2023-05-10T11:43:33;12.60;;;9.48;;
64094;SDS011;50353;51.420;5.682;2023-05-10T11:45:59;16.77;;;11.73;;
64094;SDS011;50353;51.420;5.682;2023-05-10T11:48:25;19.27;;;11.68;;
64094;SDS011;50353;51.420;5.682;2023-05-10T11:50:50;16.40;;;11.27;;
64094;SDS011;50353;51.420;5.682;2023-05-10T11:53:16;14.75;;;10.70;;
64094;SDS011;50353;51.420;5.682;2023-05-10T11:55:41;15.57;;;11.07;;
64094;SDS011;50353;51.420;5.682;2023-05-10T11:58:06;14.45;;;10.55;;
64094;SDS011;50353;51.420;5.682;2023-05-10T12:00:32;15.15;;;10.13;;
64094;SDS011;50353;51.420;5.682;2023-05-10T12:02:57;16.75;;;10.50;;
64094;SDS011;50353;51.420;5.682;2023-05-10T12:05:23;14.15;;;9.57;;
64094;SDS011;50353;51.420;5.682;2023-05-10T12:07:49;17.27;;;9.90;;
64094;SDS011;50353;51.420;5.682;2023-05-10T12:10:14;12.82;;;8.63;;
64094;SDS011;50353;51.420;5.682;2023-05-10T12:12:40;15.05;;;9.32;;
64094;SDS011;50353;51.420;5.682;2023-05-10T12:15:23;14.35;;;9.48;;
64094;SDS011;50353;51.420;5.682;2023-05-10T12:17:49;13.85;;;9.43;;
64094;SDS011;50353;51.420;5.682;2023-05-10T12:20:19;16.53;;;11.60;;
64094;SDS011;50353;51.420;5.682;2023-05-10T12:22:53;15.25;;;11.02;;
64094;SDS011;50353;51.420;5.682;2023-05-10T12:25:21;14.00;;;9.82;;
64094;SDS011;50353;51.420;5.682;2023-05-10T12:27:50;13.63;;;9.02;;
64094;SDS011;50353;51.420;5.682;2023-05-10T12:30:23;11.85;;;8.30;;
64094;SDS011;50353;51.420;5.682;2023-05-10T12:32:49;11.77;;;7.95;;
64094;SDS011;50353;51.420;5.682;2023-05-10T12:35:15;11.23;;;7.85;;
64094;SDS011;50353;51.420;5.682;2023-05-10T12:37:42;12.93;;;8.80;;
64094;SDS011;50353;51.420;5.682;2023-05-10T12:42:34;25.10;;;16.63;;
64094;SDS011;50353;51.420;5.682;2023-05-10T12:45:03;17.33;;;10.63;;
64094;SDS011;50353;51.420;5.682;2023-05-10T12:49:55;14.00;;;9.00;;
64094;SDS011;50353;51.420;5.682;2023-05-10T12:52:21;14.85;;;9.27;;
64094;SDS011;50353;51.420;5.682;2023-05-10T12:54:46;12.82;;;8.75;;
64094;SDS011;50353;51.420;5.682;2023-05-10T12:57:12;17.00;;;10.00;;
64094;SDS011;50353;51.420;5.682;2023-05-10T12:59:38;16.10;;;11.15;;
64094;SDS011;50353;51.420;5.682;2023-05-10T13:02:04;19.77;;;12.52;;
64094;SDS011;50353;51.420;5.682;2023-05-10T13:04:29;49.90;;;31.08;;
64094;SDS011;50353;51.420;5.682;2023-05-10T13:06:54;30.38;;;18.52;;
64094;SDS011;50353;51.420;5.682;2023-05-10T13:09:27;19.75;;;10.77;;
64094;SDS011;50353;51.420;5.682;2023-05-10T13:11:54;14.45;;;9.77;;
64094;SDS011;50353;51.420;5.682;2023-05-10T13:14:20;14.75;;;8.80;;
64094;SDS011;50353;51.420;5.682;2023-05-10T13:16:46;18.67;;;10.35;;
64094;SDS011;50353;51.420;5.682;2023-05-10T13:19:12;19.87;;;10.57;;
64094;SDS011;50353;51.420;5.682;2023-05-10T13:21:38;41.95;;;14.48;;
64094;SDS011;50353;51.420;5.682;2023-05-10T13:24:03;18.20;;;10.15;;
64094;SDS011;50353;51.420;5.682;2023-05-10T13:26:28;16.37;;;9.13;;
64094;SDS011;50353;51.420;5.682;2023-05-10T13:28:54;12.93;;;6.80;;
64094;SDS011;50353;51.420;5.682;2023-05-10T13:31:20;10.20;;;6.53;;
64094;SDS011;50353;51.420;5.682;2023-05-10T13:33:46;8.60;;;4.85;;
64094;SDS011;50353;51.420;5.682;2023-05-10T13:36:11;9.75;;;5.35;;
64094;SDS011;50353;51.420;5.682;2023-05-10T13:38:36;8.35;;;5.32;;
64094;SDS011;50353;51.420;5.682;2023-05-10T13:41:02;9.13;;;5.45;;
64094;SDS011;50353;51.420;5.682;2023-05-10T13:43:28;9.45;;;4.60;;
64094;SDS011;50353;51.420;5.682;2023-05-10T13:45:54;9.55;;;4.75;;
64094;SDS011;50353;51.420;5.682;2023-05-10T13:48:20;8.05;;;5.38;;
64094;SDS011;50353;51.420;5.682;2023-05-10T13:50:45;7.55;;;4.57;;
64094;SDS011;50353;51.420;5.682;2023-05-10T13:53:11;8.98;;;5.50;;
64094;SDS011;50353;51.420;5.682;2023-05-10T13:55:37;10.02;;;4.32;;
64094;SDS011;50353;51.420;5.682;2023-05-10T13:58:02;5.93;;;3.65;;
64094;SDS011;50353;51.420;5.682;2023-05-10T14:00:27;6.03;;;3.53;;
64094;SDS011;50353;51.420;5.682;2023-05-10T14:02:53;5.28;;;3.60;;
64094;SDS011;50353;51.420;5.682;2023-05-10T14:05:18;6.20;;;3.33;;
64094;SDS011;50353;51.420;5.682;2023-05-10T14:07:43;5.15;;;3.00;;
64094;SDS011;50353;51.420;5.682;2023-05-10T14:10:09;4.93;;;2.95;;
64094;SDS011;50353;51.420;5.682;2023-05-10T14:12:34;6.28;;;3.35;;
64094;SDS011;50353;51.420;5.682;2023-05-10T14:14:59;6.53;;;3.80;;
64094;SDS011;50353;51.420;5.682;2023-05-10T14:17:25;7.53;;;4.35;;
64094;SDS011;50353;51.420;5.682;2023-05-10T14:19:50;8.98;;;5.57;;
64094;SDS011;50353;51.420;5.682;2023-05-10T14:22:16;10.73;;;5.57;;
64094;SDS011;50353;51.420;5.682;2023-05-10T14:24:41;11.40;;;6.40;;
64094;SDS011;50353;51.420;5.682;2023-05-10T14:29:33;13.33;;;9.33;;
64094;SDS011;50353;51.420;5.682;2023-05-10T14:31:58;14.57;;;8.98;;
64094;SDS011;50353;51.420;5.682;2023-05-10T14:34:24;13.15;;;7.45;;
64094;SDS011;50353;51.420;5.682;2023-05-10T14:36:49;14.07;;;6.90;;
64094;SDS011;50353;51.420;5.682;2023-05-10T14:39:15;14.45;;;6.93;;
64094;SDS011;50353;51.420;5.682;2023-05-10T14:41:40;12.20;;;8.13;;
64094;SDS011;50353;51.420;5.682;2023-05-10T14:44:07;13.80;;;9.20;;
64094;SDS011;50353;51.420;5.682;2023-05-10T14:46:33;15.95;;;10.55;;
64094;SDS011;50353;51.420;5.682;2023-05-10T14:48:59;11.93;;;8.23;;
64094;SDS011;50353;51.420;5.682;2023-05-10T14:51:24;12.88;;;8.10;;
64094;SDS011;50353;51.420;5.682;2023-05-10T14:53:49;13.68;;;7.68;;
64094;SDS011;50353;51.420;5.682;2023-05-10T14:56:15;14.27;;;7.63;;
64094;SDS011;50353;51.420;5.682;2023-05-10T14:58:40;12.35;;;7.88;;
64094;SDS011;50353;51.420;5.682;2023-05-10T15:01:05;13.43;;;7.07;;
64094;SDS011;50353;51.420;5.682;2023-05-10T15:03:31;11.35;;;7.18;;
64094;SDS011;50353;51.420;5.682;2023-05-10T15:05:56;8.80;;;6.43;;
64094;SDS011;50353;51.420;5.682;2023-05-10T15:08:22;8.55;;;6.20;;
64094;SDS011;50353;51.420;5.682;2023-05-10T15:10:49;8.35;;;5.80;;
64094;SDS011;50353;51.420;5.682;2023-05-10T15:13:15;8.00;;;5.60;;